Terminal Aerodrome Forecast
Issued by NWS

Home | Current Version | Previous Version | Text Only | Print | Product List | Glossary On
Versions: 1 2 3 4 5 6 7 8 9 10 11 12 13 14 15 16 17 18 19 20 21 22 23 24 25 26 27 28 29 30 31 32 33 34 35 36 37 38 39 40 41 42 43 44 45 46 47 48 49 50
000
FTUS44 KHGX 291120
TAFIAH
TAF
KIAH 291120Z 2912/3018 15003KT P6SM BKN015 WS013/21035KT
      TEMPO 2912/2915 SCT015
     FM291500 19015KT P6SM FEW025
     FM291700 18015G25KT P6SM FEW030
     FM300100 17008KT P6SM FEW020
     FM300600 18005KT P6SM SCT007 BKN015
     FM301500 19007KT P6SM SCT025=

USA.gov is the U.S. government's official web portal to all federal, state and local government web resources and services.